createdAt,value
2019-02-18T00:04:00.707Z,2.67
2019-02-18T00:09:04.720Z,4.07
2019-02-18T00:14:08.095Z,4.60
2019-02-18T00:19:11.479Z,4.20
2019-02-18T00:24:14.859Z,3.80
2019-02-18T00:29:18.235Z,2.50
2019-02-18T00:34:21.623Z,7.53
2019-02-18T00:39:25.003Z,4.73
2019-02-18T00:44:28.388Z,4.50
2019-02-18T00:49:31.771Z,2.90
2019-02-18T00:54:35.154Z,4.30
2019-02-18T00:59:38.542Z,2.93
2019-02-18T01:04:41.931Z,3.60
2019-02-18T01:09:45.332Z,3.00
2019-02-18T01:14:48.741Z,2.63
2019-02-18T01:19:52.123Z,3.10
2019-02-18T01:24:55.513Z,4.40
2019-02-18T01:29:58.903Z,3.23
2019-02-18T01:35:02.290Z,3.30
2019-02-18T01:40:08.935Z,2.23
2019-02-18T01:45:13.890Z,2.70
2019-02-18T01:50:17.303Z,1.80
2019-02-18T01:55:20.688Z,3.53
2019-02-18T02:00:24.083Z,3.43
2019-02-18T02:05:27.467Z,3.70
2019-02-18T02:10:30.859Z,3.33
2019-02-18T02:15:34.280Z,3.03
2019-02-18T02:20:37.680Z,2.77
2019-02-18T02:25:41.076Z,2.80
2019-02-18T02:30:44.457Z,3.30
2019-02-18T02:35:47.838Z,3.60
2019-02-18T02:40:51.233Z,3.90
2019-02-18T02:45:54.609Z,3.40
2019-02-18T02:50:57.995Z,2.73
2019-02-18T02:56:01.369Z,3.97
2019-02-18T03:01:04.829Z,3.57
2019-02-18T03:06:08.303Z,2.97
2019-02-18T03:11:11.694Z,3.50
2019-02-18T03:16:15.084Z,2.17
2019-02-18T03:21:18.471Z,2.80
2019-02-18T03:26:21.851Z,4.33
2019-02-18T03:31:26.981Z,2.90
2019-02-18T03:36:30.371Z,3.40
2019-02-18T03:41:33.763Z,4.10
2019-02-18T03:46:37.163Z,3.50
2019-02-18T03:51:40.564Z,3.17
2019-02-18T03:56:44.028Z,3.37
2019-02-18T04:01:47.589Z,3.30
2019-02-18T04:06:50.984Z,2.00
2019-02-18T04:11:54.379Z,2.70
2019-02-18T04:16:57.789Z,2.57
2019-02-18T04:22:01.180Z,3.77
2019-02-18T04:27:04.562Z,3.13
2019-02-18T04:32:07.960Z,2.90
2019-02-18T04:37:11.353Z,2.73
2019-02-18T04:42:14.743Z,2.10
2019-02-18T04:47:18.140Z,3.43
2019-02-18T04:52:21.521Z,2.60
2019-02-18T04:57:24.907Z,4.47
2019-02-18T05:02:28.312Z,3.07
2019-02-18T05:07:31.868Z,1.87
2019-02-18T05:12:35.255Z,2.50
2019-02-18T05:17:38.640Z,3.00
2019-02-18T05:22:42.047Z,2.93
2019-02-18T05:27:45.429Z,3.47
2019-02-18T05:32:48.825Z,3.07
2019-02-18T05:37:52.193Z,1.97
2019-02-18T05:42:55.580Z,2.63
2019-02-18T05:47:58.961Z,2.67
2019-02-18T05:53:02.343Z,2.77
2019-02-18T05:58:05.729Z,3.33
2019-02-18T06:03:09.109Z,2.07
2019-02-18T06:08:12.506Z,2.80
2019-02-18T06:13:15.891Z,3.17
2019-02-18T06:18:19.295Z,3.20
2019-02-18T06:23:22.676Z,3.57
2019-02-18T06:28:26.078Z,2.70
2019-02-18T06:33:29.455Z,1.43
2019-02-18T06:38:32.846Z,2.47
2019-02-18T06:43:36.232Z,4.80
2019-02-18T06:48:41.269Z,2.83
2019-02-18T06:53:44.651Z,2.13
2019-02-18T06:58:52.342Z,2.50
2019-02-18T07:03:57.372Z,3.57
2019-02-18T07:09:18.515Z,2.93
2019-02-18T07:14:21.908Z,3.57
2019-02-18T07:19:25.289Z,3.73
2019-02-18T07:24:28.676Z,3.47
2019-02-18T07:29:34.060Z,3.63
2019-02-18T07:34:37.175Z,3.73
2019-02-18T07:39:40.583Z,2.03
2019-02-18T07:44:43.981Z,3.90
2019-02-18T07:49:47.365Z,2.00
2019-02-18T07:54:50.770Z,2.03
2019-02-18T07:59:54.169Z,5.13
2019-02-18T08:04:57.560Z,3.20
2019-02-18T08:10:11.444Z,3.37
2019-02-18T08:15:08.208Z,4.87
2019-02-18T08:20:11.958Z,3.00
2019-02-18T08:25:15.339Z,2.20
2019-02-18T08:30:18.727Z,3.60
2019-02-18T08:35:22.116Z,4.20
2019-02-18T08:40:25.514Z,3.50
2019-02-18T08:45:28.893Z,3.90
2019-02-18T08:50:32.295Z,5.00
2019-02-18T08:55:35.675Z,3.10
2019-02-18T09:00:39.055Z,5.10
2019-02-18T09:05:42.443Z,8.00
2019-02-18T09:10:45.911Z,6.77
2019-02-18T09:15:59.432Z,6.90
2019-02-18T09:20:54.463Z,7.10
2019-02-18T09:25:57.839Z,5.40
2019-02-18T09:31:01.219Z,5.83
2019-02-18T09:36:04.607Z,7.30
2019-02-18T09:41:07.992Z,8.23
2019-02-18T09:46:11.376Z,7.80
2019-02-18T09:51:14.767Z,8.53
2019-02-18T09:56:18.149Z,5.77
2019-02-18T10:01:21.535Z,6.60
2019-02-18T10:06:24.918Z,7.37
2019-02-18T10:11:28.295Z,5.40
2019-02-18T10:16:31.687Z,6.60
2019-02-18T10:21:35.064Z,7.60
2019-02-18T10:26:38.455Z,6.23
2019-02-18T10:31:41.854Z,5.97
2019-02-18T10:36:45.232Z,6.77
2019-02-18T10:41:48.619Z,5.87
2019-02-18T10:46:52.119Z,5.93
2019-02-18T10:51:55.507Z,7.70
2019-02-18T10:56:58.884Z,6.13
2019-02-18T11:02:02.267Z,5.30
2019-02-18T11:07:05.934Z,7.10
2019-02-18T11:12:09.323Z,6.40
2019-02-18T11:17:15.913Z,5.23
2019-02-18T11:22:19.351Z,5.87
2019-02-18T11:27:22.767Z,7.00
2019-02-18T11:32:26.144Z,6.10
2019-02-18T11:37:29.720Z,5.93
2019-02-18T11:42:33.105Z,4.53
2019-02-18T11:47:36.499Z,5.73
2019-02-18T11:52:39.887Z,5.90
2019-02-18T11:57:43.275Z,3.93
2019-02-18T12:02:46.656Z,4.77
2019-02-18T12:07:50.104Z,4.13
2019-02-18T12:12:55.846Z,4.30
2019-02-18T12:17:58.684Z,4.00
2019-02-18T12:23:02.074Z,5.40
2019-02-18T12:28:05.535Z,3.93
2019-02-18T12:33:08.917Z,4.23
2019-02-18T12:38:12.295Z,4.13
2019-02-18T12:43:15.688Z,4.23
2019-02-18T12:48:19.080Z,4.77
2019-02-18T12:53:22.481Z,5.03
2019-02-18T12:58:26.743Z,4.30
2019-02-18T13:03:30.133Z,4.90
2019-02-18T13:08:33.520Z,4.53
2019-02-18T13:13:36.963Z,4.03
2019-02-18T13:18:40.369Z,3.50
2019-02-18T13:23:43.755Z,4.23
2019-02-18T13:28:47.229Z,4.97
2019-02-18T13:33:50.895Z,3.77
2019-02-18T13:38:54.282Z,3.30
2019-02-18T13:43:57.686Z,4.80
2019-02-18T13:49:01.079Z,4.80
2019-02-18T13:54:04.464Z,4.10
2019-02-18T13:59:08.126Z,3.80
2019-02-18T14:04:11.501Z,3.60
2019-02-18T14:09:14.888Z,3.80
2019-02-18T14:14:18.276Z,4.40
2019-02-18T14:19:21.671Z,4.30
2019-02-18T14:24:25.335Z,3.43
2019-02-18T14:29:28.732Z,4.80
2019-02-18T14:34:32.121Z,3.30
2019-02-18T14:39:35.510Z,4.80
2019-02-18T14:44:38.967Z,3.93
2019-02-18T14:49:42.418Z,4.23
2019-02-18T14:54:45.804Z,5.40
2019-02-18T14:59:49.196Z,3.90
2019-02-18T15:04:52.579Z,5.17
2019-02-18T15:09:55.972Z,4.70
2019-02-18T15:14:59.749Z,4.70
2019-02-18T15:20:03.404Z,4.70
2019-02-18T15:25:08.821Z,3.70
2019-02-18T15:30:16.443Z,4.30
2019-02-18T15:35:19.832Z,5.30
2019-02-18T15:40:23.281Z,4.30
2019-02-18T15:45:26.672Z,5.47
2019-02-18T15:50:30.355Z,5.07
2019-02-18T15:55:33.738Z,5.40
2019-02-18T16:00:37.123Z,4.47
2019-02-18T16:05:40.506Z,5.03
2019-02-18T16:10:43.905Z,5.77
2019-02-18T16:15:47.299Z,5.60
2019-02-18T16:20:50.683Z,4.97
2019-02-18T16:25:54.083Z,4.60
2019-02-18T16:30:57.485Z,5.57
2019-02-18T16:36:00.893Z,5.50
2019-02-18T16:41:04.346Z,4.63
2019-02-18T16:46:08.019Z,4.50
2019-02-18T16:51:11.787Z,4.60
2019-02-18T16:56:15.243Z,4.10
2019-02-18T17:01:18.707Z,3.90
2019-02-18T17:06:22.103Z,3.67
2019-02-18T17:11:25.480Z,3.70
2019-02-18T17:16:29.243Z,3.97
2019-02-18T17:21:32.633Z,3.80
2019-02-18T17:26:36.007Z,4.00
2019-02-18T17:31:39.505Z,4.03
2019-02-18T17:36:42.883Z,4.20
2019-02-18T17:41:46.276Z,3.20
2019-02-18T17:46:49.672Z,4.13
2019-02-18T17:51:53.067Z,4.10
2019-02-18T17:56:56.443Z,3.87
2019-02-18T18:01:59.834Z,3.70
2019-02-18T18:07:03.220Z,3.60
2019-02-18T18:12:06.611Z,4.30
2019-02-18T18:17:10.016Z,4.77
2019-02-18T18:22:13.387Z,5.57
2019-02-18T18:27:16.767Z,5.93
2019-02-18T18:32:20.151Z,4.30
2019-02-18T18:37:23.530Z,4.33
2019-02-18T18:42:26.915Z,4.60
2019-02-18T18:47:30.295Z,5.73
2019-02-18T18:52:33.678Z,4.60
2019-02-18T18:57:37.335Z,5.70
2019-02-18T19:02:40.719Z,4.03
2019-02-18T19:07:44.112Z,4.37
2019-02-18T19:12:47.502Z,5.30
2019-02-18T19:17:50.872Z,5.37
2019-02-18T19:22:54.261Z,6.80
2019-02-18T19:27:57.647Z,7.90
2019-02-18T19:33:01.027Z,5.70
2019-02-18T19:38:04.403Z,5.47
2019-02-18T19:43:07.792Z,5.23
2019-02-18T19:48:11.171Z,3.67
2019-02-18T19:53:14.551Z,3.80
2019-02-18T19:58:18.215Z,6.07
2019-02-18T20:03:21.622Z,4.57
2019-02-18T20:08:24.997Z,4.23
2019-02-18T20:13:28.379Z,5.37
2019-02-18T20:18:32.059Z,6.70
2019-02-18T20:23:35.443Z,4.97
2019-02-18T20:28:38.823Z,5.33
2019-02-18T20:33:42.207Z,6.20
2019-02-18T20:38:45.595Z,5.97
2019-02-18T20:43:48.979Z,4.93
2019-02-18T20:48:52.374Z,4.47
2019-02-18T20:53:55.762Z,5.27
2019-02-18T20:58:59.519Z,5.30
2019-02-18T21:04:02.904Z,5.70
2019-02-18T21:09:06.568Z,6.07
2019-02-18T21:14:15.924Z,5.53
2019-02-18T21:19:15.099Z,4.90
2019-02-18T21:24:18.493Z,5.60
2019-02-18T21:29:21.879Z,4.33
2019-02-18T21:34:25.262Z,3.73
2019-02-18T21:39:28.650Z,5.20
2019-02-18T21:44:32.029Z,5.13
2019-02-18T21:49:35.418Z,3.60
2019-02-18T21:54:38.791Z,4.17
2019-02-18T21:59:42.171Z,5.33
2019-02-18T22:04:45.547Z,4.10
2019-02-18T22:09:48.927Z,4.47
2019-02-18T22:14:52.309Z,4.70
2019-02-18T22:19:55.695Z,2.70
2019-02-18T22:24:59.083Z,5.00
2019-02-18T22:30:02.644Z,7.47
2019-02-18T22:35:06.970Z,3.47
2019-02-18T22:40:11.967Z,5.30
2019-02-18T22:45:15.355Z,4.67
2019-02-18T22:50:18.744Z,4.37
2019-02-18T22:55:22.123Z,4.07
2019-02-18T23:00:48.927Z,4.70
2019-02-18T23:05:52.313Z,2.73
2019-02-18T23:10:56.363Z,5.80
2019-02-18T23:15:59.743Z,4.27
2019-02-18T23:21:03.136Z,7.00
2019-02-18T23:26:06.519Z,6.70
2019-02-18T23:31:10.000Z,4.30
2019-02-18T23:36:13.392Z,5.23
2019-02-18T23:41:16.852Z,4.20
2019-02-18T23:46:20.230Z,3.97
2019-02-18T23:51:23.619Z,4.83
2019-02-18T23:56:27.011Z,3.50
